Time;durP1;ratioP1;P1;durP2;ratioP2;P2;SDS_P1;SDS_P2;PMS_P1;PMS_P2;Temp;Humidity;BMP_temperature;BMP_pressure;BME280_temperature;BME280_humidity;BME280_pressure;Samples;Min_cycle;Max_cycle;Signal;HPM_P1;HPM_P2
2023/06/25 00:00:52;;;;;;;4.43;4.03;;;;;;;19.77;73.70;98938.97;4147982;28;21624;-51
2023/06/25 00:02:54;;;;;;;5.97;5.57;;;;;;;19.75;73.31;98936.50;4132025;28;20277;-50
2023/06/25 00:04:56;;;;;;;5.13;4.72;;;;;;;19.80;73.51;98932.81;4134515;28;20208;-53
2023/06/25 00:07:00;;;;;;;6.65;4.93;;;;;;;19.76;73.48;98931.75;4138729;28;20204;-53
2023/06/25 00:09:02;;;;;;;4.70;4.40;;;;;;;19.69;73.49;98936.84;4148908;28;20297;-52
2023/06/25 00:11:04;;;;;;;5.70;5.20;;;;;;;19.67;73.78;98939.09;4149261;28;20224;-52
2023/06/25 00:13:06;;;;;;;4.75;4.35;;;;;;;19.67;74.19;98930.78;4147891;28;20318;-51
2023/06/25 00:15:10;;;;;;;4.85;4.50;;;;;;;19.64;73.89;98934.97;4139340;28;20229;-53
2023/06/25 00:17:17;;;;;;;5.18;4.78;;;;;;;19.65;73.71;98935.81;4131815;28;20237;-51
2023/06/25 00:19:18;;;;;;;4.57;4.28;;;;;;;19.65;73.77;98935.81;4167161;28;20249;-51
2023/06/25 00:21:20;;;;;;;4.55;4.25;;;;;;;19.66;73.80;98938.25;4148889;28;20262;-51
2023/06/25 00:23:22;;;;;;;4.63;4.22;;;;;;;19.66;73.93;98931.91;4133432;28;20301;-50
2023/06/25 00:25:26;;;;;;;5.53;5.13;;;;;;;19.60;73.80;98939.50;4147131;28;21054;-50
2023/06/25 00:27:28;;;;;;;5.45;5.05;;;;;;;19.50;73.93;98927.66;4121099;28;20692;-51
2023/06/25 00:29:29;;;;;;;4.78;4.38;;;;;;;19.46;74.37;98926.63;4149055;28;20255;-52
2023/06/25 00:31:31;;;;;;;5.10;4.70;;;;;;;19.42;74.73;98925.53;4165529;28;20212;-51
2023/06/25 00:33:33;;;;;;;4.90;4.55;;;;;;;19.33;75.10;98928.19;4163019;28;20223;-53
2023/06/25 00:36:05;;;;;;;5.60;5.20;;;;;;;19.18;75.41;98921.94;4150705;28;20225;-51
2023/06/25 00:38:08;;;;;;;7.50;4.93;;;;;;;19.14;75.74;98923.66;4156492;28;20323;-52
2023/06/25 00:40:10;;;;;;;7.53;7.03;;;;;;;19.12;76.12;98920.34;4137082;28;20229;-51
2023/06/25 00:42:13;;;;;;;5.75;5.25;;;;;;;19.08;76.41;98931.22;4165737;28;20207;-53
2023/06/25 00:44:14;;;;;;;5.50;5.10;;;;;;;19.08;76.39;98922.06;4134572;28;20220;-52
2023/06/25 00:46:16;;;;;;;5.72;5.28;;;;;;;19.05;76.58;98929.00;4148632;28;20286;-51
2023/06/25 00:48:21;;;;;;;5.75;5.28;;;;;;;19.04;77.00;98923.78;4133782;28;20751;-51
2023/06/25 00:50:23;;;;;;;5.55;5.15;;;;;;;19.04;76.96;98927.38;4147669;28;20197;-53
2023/06/25 00:52:25;;;;;;;5.13;4.72;;;;;;;19.02;76.98;98926.84;4146603;28;20197;-50
2023/06/25 00:54:30;;;;;;;6.38;5.78;;;;;;;18.97;77.37;98923.31;4129597;28;20218;-52
2023/06/25 00:56:33;;;;;;;5.95;5.35;;;;;;;18.94;77.67;98923.88;4135044;28;20232;-50
2023/06/25 00:58:37;;;;;;;4.93;4.53;;;;;;;18.94;77.76;98923.88;4149215;28;20215;-51
2023/06/25 01:00:39;;;;;;;4.93;4.53;;;;;;;18.88;77.81;98919.50;4148278;28;20224;-51
2023/06/25 01:02:46;;;;;;;5.38;4.97;;;;;;;18.85;77.86;98914.56;4136900;28;20246;-52
2023/06/25 01:05:02;;;;;;;6.57;4.97;;;;;;;18.78;78.19;98920.44;4141287;28;20205;-52
2023/06/25 01:07:11;;;;;;;5.18;4.78;;;;;;;18.73;78.60;98916.91;4151578;28;20244;-51
2023/06/25 01:09:13;;;;;;;5.32;4.93;;;;;;;18.68;78.78;98911.38;4130770;28;20994;-52
2023/06/25 01:11:15;;;;;;;5.20;4.80;;;;;;;18.77;78.38;98910.47;4143541;28;20213;-51
2023/06/25 01:13:17;;;;;;;5.60;5.20;;;;;;;18.76;77.71;98905.19;4151198;28;20216;-52
2023/06/25 01:15:18;;;;;;;5.22;4.80;;;;;;;18.73;77.60;98900.25;4138834;28;20734;-51
2023/06/25 01:17:20;;;;;;;5.47;5.07;;;;;;;18.72;77.50;98904.16;4163666;28;20266;-50
2023/06/25 01:19:29;;;;;;;5.80;5.40;;;;;;;18.68;77.36;98898.38;4150317;28;20229;-53
2023/06/25 01:21:31;;;;;;;5.70;5.30;;;;;;;18.56;77.57;98902.63;4164270;28;20213;-51
2023/06/25 01:23:35;;;;;;;5.28;4.88;;;;;;;18.52;78.00;98899.63;4165606;28;20287;-51
2023/06/25 01:25:38;;;;;;;5.68;5.18;;;;;;;18.45;78.14;98899.13;4133987;28;20845;-53
2023/06/25 01:27:40;;;;;;;6.47;4.78;;;;;;;18.45;77.91;98903.88;4135001;28;20621;-51
2023/06/25 01:29:41;;;;;;;4.88;4.57;;;;;;;18.46;78.31;98899.97;4132442;28;20241;-50
2023/06/25 01:31:43;;;;;;;4.88;4.57;;;;;;;18.47;78.35;98896.06;4133551;28;20306;-50
2023/06/25 01:33:45;;;;;;;6.95;5.13;;;;;;;18.46;78.37;98894.44;4147105;28;20244;-50
2023/06/25 01:35:47;;;;;;;5.95;5.55;;;;;;;18.46;78.90;98895.25;4132932;28;20237;-51
2023/06/25 01:37:49;;;;;;;5.03;4.72;;;;;;;18.47;79.32;98896.91;4140970;28;20219;-50
2023/06/25 01:39:53;;;;;;;5.65;5.25;;;;;;;18.46;79.29;98897.19;4131632;28;21247;-52
2023/06/25 01:41:56;;;;;;;4.65;4.25;;;;;;;18.42;79.94;98896.97;4133507;28;20206;-50
2023/06/25 01:43:58;;;;;;;5.65;5.20;;;;;;;18.37;80.29;98901.69;4136110;28;20267;-50
2023/06/25 01:45:59;;;;;;;5.95;5.55;;;;;;;18.30;80.18;98899.28;4136428;28;20229;-50
2023/06/25 01:48:01;;;;;;;5.25;4.85;;;;;;;18.20;80.63;98898.50;4138102;28;20209;-51
2023/06/25 01:50:04;;;;;;;5.65;5.25;;;;;;;18.09;81.25;98888.63;4148694;28;20206;-53
2023/06/25 01:52:07;;;;;;;6.38;5.88;;;;;;;18.06;81.91;98894.75;4132523;28;22391;-51
2023/06/25 01:54:09;;;;;;;6.53;6.03;;;;;;;18.02;82.29;98891.72;4148225;28;20217;-53
2023/06/25 01:56:10;;;;;;;6.30;5.80;;;;;;;17.93;82.46;98892.63;4131140;28;20252;-50
2023/06/25 01:58:12;;;;;;;6.20;5.70;;;;;;;17.93;82.92;98895.41;4132264;28;20244;-51
2023/06/25 02:00:15;;;;;;;6.05;5.55;;;;;;;17.96;82.58;98890.13;4146541;28;20732;-51
2023/06/25 02:02:16;;;;;;;6.43;5.90;;;;;;;17.94;82.72;98892.34;4134599;28;20205;-52
2023/06/25 02:04:19;;;;;;;5.28;4.90;;;;;;;17.97;82.22;98888.16;4132837;28;20696;-51
2023/06/25 02:06:20;;;;;;;5.65;5.28;;;;;;;18.01;82.27;98889.25;4136864;28;20728;-50
2023/06/25 02:08:22;;;;;;;6.60;6.10;;;;;;;18.01;82.45;98883.69;4136686;28;20225;-51
2023/06/25 02:10:24;;;;;;;5.63;5.22;;;;;;;17.90;82.60;98882.97;4131103;28;20671;-51
2023/06/25 02:12:26;;;;;;;5.25;4.85;;;;;;;17.84;82.90;98886.06;4132471;28;20213;-50
2023/06/25 02:14:27;;;;;;;5.93;5.53;;;;;;;17.82;83.19;98877.19;4145723;28;20215;-52
2023/06/25 02:16:29;;;;;;;5.20;4.80;;;;;;;17.75;83.57;98876.69;4132632;28;20709;-51
2023/06/25 02:18:32;;;;;;;5.70;5.20;;;;;;;17.67;83.62;98880.06;4130531;28;20652;-51
2023/06/25 02:20:33;;;;;;;6.38;5.78;;;;;;;17.65;83.69;98871.25;4135498;28;20268;-52
2023/06/25 02:22:35;;;;;;;5.75;5.20;;;;;;;17.62;83.75;98877.34;4132466;28;20663;-51
2023/06/25 02:24:40;;;;;;;6.10;5.60;;;;;;;17.60;83.60;98868.50;4145892;28;20255;-52
2023/06/25 02:26:42;;;;;;;6.20;5.70;;;;;;;17.59;83.55;98872.38;4147336;28;20329;-51
2023/06/25 02:28:43;;;;;;;4.97;4.57;;;;;;;17.60;83.52;98868.50;4136524;28;20205;-52
2023/06/25 02:30:45;;;;;;;6.35;5.85;;;;;;;17.58;83.56;98870.75;4133339;28;20209;-50
2023/06/25 02:32:47;;;;;;;6.05;5.45;;;;;;;17.61;83.46;98872.91;4146434;28;20939;-51
2023/06/25 02:34:49;;;;;;;4.93;4.53;;;;;;;17.53;83.71;98870.75;4164178;28;20212;-51
2023/06/25 02:36:51;;;;;;;4.93;4.47;;;;;;;17.53;83.71;98866.03;4162454;28;20204;-53
2023/06/25 02:38:52;;;;;;;5.38;4.95;;;;;;;17.51;83.48;98870.22;4146516;28;20212;-51
2023/06/25 02:40:54;;;;;;;5.43;5.03;;;;;;;17.53;83.49;98866.03;4135465;28;20229;-52
2023/06/25 02:42:56;;;;;;;5.60;5.20;;;;;;;17.54;83.56;98864.09;4144721;28;20240;-50
2023/06/25 02:44:58;;;;;;;7.45;5.43;;;;;;;17.44;84.27;98864.19;4137058;28;20695;-51
2023/06/25 02:47:00;;;;;;;5.78;5.28;;;;;;;17.37;84.16;98863.63;4146713;28;20243;-50
2023/06/25 02:49:02;;;;;;;4.93;4.63;;;;;;;17.39;84.23;98858.66;4131453;28;20233;-51
2023/06/25 02:51:04;;;;;;;5.07;4.78;;;;;;;17.35;84.42;98854.78;4132125;28;20272;-50
2023/06/25 02:53:06;;;;;;;6.03;5.63;;;;;;;17.36;84.26;98862.81;4132018;28;20221;-51
2023/06/25 02:55:08;;;;;;;5.47;5.07;;;;;;;17.37;84.23;98860.88;4131588;28;20233;-52
2023/06/25 02:57:10;;;;;;;5.72;5.30;;;;;;;17.38;84.16;98859.78;4139155;28;20579;-51
2023/06/25 02:59:12;;;;;;;5.82;5.43;;;;;;;17.37;84.32;98853.41;4144704;28;20636;-51
2023/06/25 03:01:13;;;;;;;4.85;4.45;;;;;;;17.34;84.56;98847.59;4147596;28;20629;-53
2023/06/25 03:03:15;;;;;;;5.53;5.13;;;;;;;17.33;84.75;98851.47;4147487;28;20351;-51
2023/06/25 03:05:17;;;;;;;5.88;5.43;;;;;;;17.26;84.52;98857.31;4136047;28;20479;-50
2023/06/25 03:07:19;;;;;;;6.13;5.63;;;;;;;17.20;85.05;98858.44;4133711;28;20201;-52
2023/06/25 03:09:20;;;;;;;5.90;5.50;;;;;;;17.14;85.00;98854.06;4146155;28;20209;-52
2023/06/25 03:11:22;;;;;;;5.63;5.22;;;;;;;17.12;85.62;98858.22;4133460;28;20220;-54
2023/06/25 03:13:24;;;;;;;5.95;5.55;;;;;;;17.03;85.95;98857.16;4137550;28;20209;-50
2023/06/25 03:15:26;;;;;;;5.40;4.90;;;;;;;16.99;86.22;98856.06;4128262;28;21011;-50
2023/06/25 03:17:27;;;;;;;6.10;5.70;;;;;;;16.99;86.07;98858.84;4169290;28;20209;-50
2023/06/25 03:19:29;;;;;;;5.93;5.53;;;;;;;16.96;86.24;98850.28;4152796;28;20217;-51
2023/06/25 03:21:31;;;;;;;5.80;5.40;;;;;;;16.94;86.40;98853.31;4138619;28;20696;-52
2023/06/25 03:23:33;;;;;;;8.77;5.57;;;;;;;16.93;86.41;98852.47;4170144;28;20812;-51
2023/06/25 03:25:35;;;;;;;6.03;5.53;;;;;;;16.90;86.47;98846.69;4145441;28;20342;-50
2023/06/25 03:27:38;;;;;;;5.55;5.07;;;;;;;16.87;86.34;98850.03;4138839;28;20663;-52
2023/06/25 03:29:39;;;;;;;5.82;5.43;;;;;;;16.89;86.28;98850.56;4134787;28;20268;-52
2023/06/25 03:31:41;;;;;;;6.15;5.75;;;;;;;16.89;86.31;98845.03;4141385;28;20753;-52
2023/06/25 03:33:43;;;;;;;6.15;5.65;;;;;;;16.94;86.14;98853.31;4137303;28;20221;-52
2023/06/25 03:35:45;;;;;;;6.22;5.80;;;;;;;16.96;86.02;98851.09;4135280;28;20634;-50
2023/06/25 03:37:46;;;;;;;6.88;6.28;;;;;;;16.93;86.00;98851.66;4140067;28;20201;-50
2023/06/25 03:39:48;;;;;;;6.53;5.47;;;;;;;16.93;85.75;98858.00;4135674;28;20225;-50
2023/06/25 03:41:50;;;;;;;6.38;5.78;;;;;;;16.93;85.71;98854.44;4136272;28;20689;-51
2023/06/25 03:43:51;;;;;;;6.43;5.78;;;;;;;16.96;85.98;98845.56;4135530;28;20233;-50
2023/06/25 03:45:53;;;;;;;6.28;5.68;;;;;;;16.90;86.21;98841.16;4139740;28;20287;-51
2023/06/25 03:47:55;;;;;;;6.68;6.18;;;;;;;16.91;86.41;98842.84;4165814;28;20200;-53
2023/06/25 03:49:57;;;;;;;6.45;5.85;;;;;;;16.96;86.52;98851.09;4137654;28;20201;-51
2023/06/25 03:51:59;;;;;;;6.38;5.88;;;;;;;16.89;86.14;98844.22;4151199;28;20728;-50
2023/06/25 03:54:00;;;;;;;7.43;6.93;;;;;;;16.86;86.01;98840.09;4167318;28;20201;-50
2023/06/25 03:56:02;;;;;;;5.97;5.55;;;;;;;16.83;86.01;98845.34;4168531;28;20935;-50
2023/06/25 03:58:04;;;;;;;5.97;5.47;;;;;;;16.85;86.07;98843.97;4148511;28;20263;-53
2023/06/25 04:00:06;;;;;;;6.60;6.10;;;;;;;16.82;86.40;98850.03;4134073;28;20369;-50
2023/06/25 04:02:08;;;;;;;6.97;6.43;;;;;;;16.74;86.71;98847.88;4136529;28;20224;-50
2023/06/25 04:04:10;;;;;;;5.35;4.97;;;;;;;16.76;86.73;98851.16;4151972;28;20288;-52
2023/06/25 04:06:12;;;;;;;5.57;5.15;;;;;;;16.73;86.88;98848.97;4134809;28;20261;-50
2023/06/25 04:08:13;;;;;;;5.55;5.15;;;;;;;16.73;87.13;98851.75;4135790;28;21798;-51
2023/06/25 04:10:15;;;;;;;6.53;6.03;;;;;;;16.73;87.44;98846.22;4136271;28;20726;-52
2023/06/25 04:12:17;;;;;;;5.80;5.40;;;;;;;16.73;87.39;98846.22;4148111;28;20663;-53
2023/06/25 04:14:19;;;;;;;5.60;5.20;;;;;;;16.74;87.66;98842.34;4135022;28;20205;-54
2023/06/25 04:16:20;;;;;;;5.63;5.22;;;;;;;16.77;87.92;98847.28;4136082;28;20237;-50
2023/06/25 04:18:22;;;;;;;6.80;6.20;;;;;;;16.75;88.09;98843.19;4132080;28;20213;-52
2023/06/25 04:20:27;;;;;;;6.05;5.55;;;;;;;16.77;88.05;98846.47;4165880;28;20229;-51
2023/06/25 04:22:29;;;;;;;5.97;5.57;;;;;;;16.79;88.01;98849.78;4132383;28;20217;-50
2023/06/25 04:24:31;;;;;;;5.95;5.55;;;;;;;16.78;87.96;98848.97;4131893;28;20234;-50
2023/06/25 04:26:33;;;;;;;5.40;5.00;;;;;;;16.72;88.45;98849.25;4135373;28;20241;-53
2023/06/25 04:28:35;;;;;;;5.68;5.28;;;;;;;16.72;88.31;98844.56;4135509;28;20659;-53
2023/06/25 04:30:36;;;;;;;5.55;5.15;;;;;;;16.75;88.19;98848.72;4148925;28;20206;-53
2023/06/25 04:32:38;;;;;;;7.30;5.88;;;;;;;16.76;88.07;98851.16;4136460;28;20274;-51
2023/06/25 04:34:41;;;;;;;5.90;5.47;;;;;;;16.76;88.07;98853.94;4136890;28;20727;-51
2023/06/25 04:36:42;;;;;;;6.20;5.70;;;;;;;16.79;88.16;98850.63;4138197;28;20220;-51
2023/06/25 04:38:44;;;;;;;5.65;5.25;;;;;;;16.81;87.97;98848.41;4135710;28;20218;-53
2023/06/25 04:40:46;;;;;;;6.68;6.18;;;;;;;16.87;88.15;98854.72;4147259;28;20307;-51
2023/06/25 04:42:47;;;;;;;5.47;5.07;;;;;;;16.89;88.52;98849.75;4164632;28;20208;-51
2023/06/25 04:44:51;;;;;;;5.82;5.43;;;;;;;16.89;88.43;98856.09;4147709;28;20696;-51
2023/06/25 04:46:54;;;;;;;5.68;5.28;;;;;;;16.92;88.83;98850.84;4145842;28;20208;-51
2023/06/25 04:48:56;;;;;;;6.07;5.65;;;;;;;16.98;88.66;98854.44;4134670;28;20257;-50
2023/06/25 04:50:58;;;;;;;5.40;5.10;;;;;;;17.05;88.56;98852.19;4147046;28;20202;-52
2023/06/25 04:53:00;;;;;;;6.15;5.65;;;;;;;17.08;88.19;98859.91;4163582;28;20212;-50
2023/06/25 04:55:02;;;;;;;5.78;5.38;;;;;;;17.14;88.52;98853.22;4150624;28;20224;-50
2023/06/25 04:57:04;;;;;;;6.03;5.43;;;;;;;17.16;88.23;98851.84;4136460;28;20261;-52
2023/06/25 04:59:06;;;;;;;5.68;5.28;;;;;;;17.17;87.96;98856.25;4137406;28;20213;-52
2023/06/25 05:01:08;;;;;;;6.30;5.80;;;;;;;17.22;87.83;98856.25;4165323;28;20901;-51
2023/06/25 05:03:09;;;;;;;5.72;5.32;;;;;;;17.27;87.69;98852.63;4134705;28;20280;-53
2023/06/25 05:05:11;;;;;;;6.57;6.07;;;;;;;17.32;87.46;98850.63;4147469;28;20236;-52
2023/06/25 05:07:13;;;;;;;5.78;5.38;;;;;;;17.38;87.19;98855.06;4143681;28;20214;-51
2023/06/25 05:09:15;;;;;;;5.70;5.30;;;;;;;17.44;87.12;98855.88;4151997;28;20209;-52
2023/06/25 05:11:16;;;;;;;5.50;5.10;;;;;;;17.55;86.38;98863.00;4142135;28;20202;-51
2023/06/25 05:13:18;;;;;;;5.82;5.32;;;;;;;17.54;86.09;98858.56;4143804;28;20215;-52
2023/06/25 05:15:20;;;;;;;5.68;5.13;;;;;;;17.63;85.74;98863.22;4135402;28;20233;-51
2023/06/25 05:17:21;;;;;;;5.95;5.55;;;;;;;17.50;86.30;98857.47;4138126;28;20217;-51
2023/06/25 05:19:23;;;;;;;5.80;5.40;;;;;;;17.66;85.48;98868.16;4148907;28;20208;-51
2023/06/25 05:21:25;;;;;;;6.47;5.97;;;;;;;17.27;88.19;98867.28;4139121;28;20234;-53
2023/06/25 05:23:27;;;;;;;6.25;5.75;;;;;;;17.55;86.91;98865.75;4146184;28;20622;-51
2023/06/25 05:25:28;;;;;;;4.95;4.55;;;;;;;17.60;86.66;98869.31;4134838;28;20233;-52
2023/06/25 05:27:30;;;;;;;5.57;5.18;;;;;;;17.77;85.96;98863.38;4136603;28;20205;-51
2023/06/25 05:29:32;;;;;;;6.13;5.63;;;;;;;17.79;86.80;98866.72;4167130;28;20208;-52
2023/06/25 05:31:33;;;;;;;6.72;5.78;;;;;;;17.80;86.85;98862.81;4139195;28;20217;-52
2023/06/25 05:33:35;;;;;;;5.65;5.15;;;;;;;18.04;85.23;98863.75;4167677;28;20286;-51
2023/06/25 05:35:37;;;;;;;5.10;4.60;;;;;;;18.18;84.31;98859.19;4131074;28;20226;-53
2023/06/25 05:37:39;;;;;;;4.65;4.35;;;;;;;18.23;84.80;98867.44;4132360;28;20234;-52
2023/06/25 05:39:41;;;;;;;7.50;5.70;;;;;;;18.32;85.85;98871.28;4135682;28;20660;-52
2023/06/25 05:41:43;;;;;;;10.48;6.35;;;;;;;18.38;86.79;98870.94;4148188;28;20290;-50
2023/06/25 05:43:44;;;;;;;5.47;5.07;;;;;;;18.64;86.62;98866.78;4132992;28;20201;-51
2023/06/25 05:45:46;;;;;;;5.40;5.00;;;;;;;18.96;86.21;98866.97;4165949;28;20712;-52
2023/06/25 05:47:48;;;;;;;5.00;4.70;;;;;;;19.31;85.60;98869.34;4138226;28;20210;-53
2023/06/25 05:49:49;;;;;;;5.53;4.43;;;;;;;19.57;83.82;98862.31;4140297;28;20300;-53
2023/06/25 05:51:51;;;;;;;6.10;5.43;;;;;;;19.58;82.24;98863.97;4148030;28;20204;-50
2023/06/25 05:53:54;;;;;;;4.93;4.53;;;;;;;19.94;81.77;98855.91;4135402;28;20311;-50
2023/06/25 05:55:55;;;;;;;4.43;4.13;;;;;;;20.24;78.79;98855.47;4137552;28;20228;-51
2023/06/25 05:57:57;;;;;;;7.00;4.90;;;;;;;20.46;78.36;98858.41;4131987;28;20209;-51
2023/06/25 05:59:59;;;;;;;5.55;5.00;;;;;;;20.67;76.96;98856.88;4132680;28;20210;-51
2023/06/25 06:02:01;;;;;;;7.22;5.05;;;;;;;20.89;76.34;98857.88;4134284;28;20583;-51
2023/06/25 06:04:04;;;;;;;6.45;4.72;;;;;;;21.00;75.54;98858.50;4133443;28;20588;-50
2023/06/25 06:06:06;;;;;;;5.45;5.05;;;;;;;21.12;76.29;98861.59;4136781;28;20261;-51
2023/06/25 06:08:08;;;;;;;5.20;4.80;;;;;;;21.31;75.34;98859.53;4138298;28;20255;-51
2023/06/25 06:10:12;;;;;;;4.65;4.30;;;;;;;21.33;74.81;98862.81;4150894;28;20212;-53
2023/06/25 06:12:13;;;;;;;5.00;4.22;;;;;;;21.62;73.78;98854.91;4164716;28;20250;-51
2023/06/25 06:14:15;;;;;;;4.47;4.18;;;;;;;21.78;73.58;98847.91;4147708;28;20869;-52
2023/06/25 06:16:17;;;;;;;6.57;4.93;;;;;;;21.95;73.28;98859.16;4133749;28;20284;-54
2023/06/25 06:18:18;;;;;;;3.97;3.72;;;;;;;22.01;72.40;98857.91;4134299;28;20292;-51
2023/06/25 06:20:20;;;;;;;4.50;4.10;;;;;;;22.10;71.79;98856.84;4146319;28;20359;-54
2023/06/25 06:22:22;;;;;;;4.18;3.88;;;;;;;22.28;71.12;98864.22;4145826;28;20330;-51
2023/06/25 06:24:23;;;;;;;4.85;4.55;;;;;;;22.40;69.69;98867.25;4146764;28;20212;-53
2023/06/25 06:26:26;;;;;;;4.15;3.85;;;;;;;22.54;69.31;98867.19;4137259;28;20411;-51
2023/06/25 06:28:28;;;;;;;4.75;4.45;;;;;;;22.59;68.62;98864.28;4147915;28;20208;-51
2023/06/25 06:30:29;;;;;;;3.58;3.38;;;;;;;22.57;68.42;98856.22;4152023;28;20255;-53
2023/06/25 06:32:31;;;;;;;4.43;4.03;;;;;;;22.72;68.97;98857.78;4132116;28;20759;-50
2023/06/25 06:34:33;;;;;;;3.78;3.47;;;;;;;22.89;68.36;98857.84;4138308;28;20229;-52
2023/06/25 06:36:34;;;;;;;4.45;4.07;;;;;;;22.94;67.61;98861.34;4134745;28;20224;-51
2023/06/25 06:38:39;;;;;;;4.60;4.25;;;;;;;23.02;67.26;98868.09;4132643;28;20343;-53
2023/06/25 06:40:41;;;;;;;3.90;3.60;;;;;;;23.28;66.85;98855.91;4150078;28;20704;-50
2023/06/25 06:42:43;;;;;;;4.40;4.00;;;;;;;23.44;66.49;98861.88;4164650;28;20204;-51
2023/06/25 06:44:44;;;;;;;3.70;3.40;;;;;;;23.65;65.73;98871.28;4135608;28;20205;-51
2023/06/25 06:46:46;;;;;;;3.90;3.50;;;;;;;23.73;65.69;98867.66;4135936;28;20227;-52
2023/06/25 06:48:48;;;;;;;4.13;3.70;;;;;;;23.73;63.81;98864.88;4163783;28;21049;-51
2023/06/25 06:50:50;;;;;;;4.18;3.80;;;;;;;23.93;63.79;98857.53;4137806;28;20679;-51
2023/06/25 06:52:51;;;;;;;4.20;3.90;;;;;;;24.16;63.19;98860.97;4162853;28;20235;-50
2023/06/25 06:54:53;;;;;;;4.43;4.13;;;;;;;24.01;61.91;98859.50;4162047;28;20286;-53
2023/06/25 06:56:55;;;;;;;4.30;3.95;;;;;;;24.36;61.70;98861.13;4137965;28;20227;-53
2023/06/25 06:58:57;;;;;;;4.00;3.60;;;;;;;24.49;61.06;98860.13;4132768;28;20260;-51
2023/06/25 07:00:58;;;;;;;10.43;4.25;;;;;;;24.59;59.74;98859.78;4140077;28;20229;-54
2023/06/25 07:03:00;;;;;;;3.78;3.47;;;;;;;24.71;58.52;98856.31;4135575;28;20205;-52
2023/06/25 07:05:02;;;;;;;4.22;3.92;;;;;;;24.52;58.34;98848.25;4137821;28;20256;-52
2023/06/25 07:07:05;;;;;;;3.47;3.28;;;;;;;24.93;59.02;98847.69;4139499;28;20209;-53
2023/06/25 07:09:07;;;;;;;3.58;3.38;;;;;;;24.98;57.02;98856.72;4134067;28;20240;-51
2023/06/25 07:11:08;;;;;;;5.30;4.82;;;;;;;25.18;57.97;98847.56;4165146;28;20234;-50
2023/06/25 07:13:10;;;;;;;3.47;3.22;;;;;;;24.94;56.74;98844.53;4131105;28;20679;-51
2023/06/25 07:15:12;;;;;;;3.88;3.58;;;;;;;25.39;57.50;98845.66;4137292;28;20220;-53
2023/06/25 07:17:14;;;;;;;4.25;3.95;;;;;;;25.48;56.85;98849.25;4144828;28;20208;-52
2023/06/25 07:19:15;;;;;;;4.00;3.70;;;;;;;25.81;56.43;98850.19;4132517;28;20299;-53
2023/06/25 07:21:17;;;;;;;5.40;3.88;;;;;;;25.69;54.65;98860.50;4162789;28;20223;-52
2023/06/25 07:23:19;;;;;;;4.10;3.80;;;;;;;25.06;55.50;98855.03;4133040;28;20221;-50
2023/06/25 07:25:21;;;;;;;4.82;4.50;;;;;;;25.60;56.07;98857.72;4165305;28;20266;-51
2023/06/25 07:27:22;;;;;;;3.90;3.60;;;;;;;25.46;54.34;98848.75;4131754;28;20696;-51
2023/06/25 07:29:24;;;;;;;4.97;4.07;;;;;;;25.49;53.91;98855.66;4165265;28;20897;-51
2023/06/25 07:31:26;;;;;;;4.20;3.20;;;;;;;25.53;53.10;98853.84;4129037;28;20251;-51
2023/06/25 07:33:28;;;;;;;3.83;3.53;;;;;;;25.67;52.36;98852.41;4146914;28;20227;-51
2023/06/25 07:35:29;;;;;;;3.65;3.42;;;;;;;25.51;51.03;98848.56;4138628;28;20232;-50
2023/06/25 07:37:31;;;;;;;3.53;3.22;;;;;;;25.70;52.49;98848.94;4149306;28;20254;-51
2023/06/25 07:39:33;;;;;;;3.47;3.17;;;;;;;25.95;51.45;98847.97;4129606;28;20247;-52
2023/06/25 07:41:35;;;;;;;4.65;3.47;;;;;;;26.24;51.20;98850.69;4135776;28;20248;-54
2023/06/25 07:43:36;;;;;;;3.58;3.15;;;;;;;25.92;50.03;98843.03;4132078;28;20244;-51
2023/06/25 07:45:38;;;;;;;3.10;2.80;;;;;;;26.15;49.46;98851.91;4134479;28;20636;-51
2023/06/25 07:47:41;;;;;;;3.13;2.85;;;;;;;26.38;49.01;98851.19;4135864;28;20315;-51
2023/06/25 07:49:43;;;;;;;3.47;3.20;;;;;;;26.08;49.02;98841.25;4130022;28;20209;-52
2023/06/25 07:51:50;;;;;;;3.72;3.42;;;;;;;26.35;48.34;98846.28;4136297;28;20793;-51
2023/06/25 07:53:51;;;;;;;3.50;2.63;;;;;;;26.30;48.65;98843.69;4147719;28;20212;-52
2023/06/25 07:55:53;;;;;;;3.30;3.00;;;;;;;26.38;48.50;98839.97;4135264;28;20332;-50
2023/06/25 07:58:05;;;;;;;3.78;3.47;;;;;;;26.08;46.32;98841.25;4139148;28;20212;-50
2023/06/25 08:00:07;;;;;;;3.78;3.47;;;;;;;26.38;46.88;98839.97;4133572;28;20279;-50
2023/06/25 08:02:09;;;;;;;3.25;3.05;;;;;;;26.54;46.99;98838.22;4137103;28;20228;-50
2023/06/25 08:04:10;;;;;;;4.25;3.85;;;;;;;26.75;46.69;98838.13;4132614;28;20687;-50
2023/06/25 08:06:12;;;;;;;3.60;3.30;;;;;;;27.06;45.28;98842.03;4149910;28;20239;-51
2023/06/25 08:08:14;;;;;;;3.22;2.95;;;;;;;27.17;46.54;98840.44;4137284;28;20217;-51
2023/06/25 08:10:16;;;;;;;3.55;3.25;;;;;;;27.03;43.84;98834.31;4164274;28;20682;-51
2023/06/25 08:12:18;;;;;;;3.47;3.28;;;;;;;27.21;44.09;98835.78;4151219;28;20196;-52
2023/06/25 08:14:19;;;;;;;2.78;2.58;;;;;;;27.36;44.61;98825.81;4166201;28;20601;-51
2023/06/25 08:16:22;;;;;;;3.50;3.20;;;;;;;27.87;44.94;98825.06;4155381;28;20259;-52
2023/06/25 08:18:24;;;;;;;4.50;4.13;;;;;;;27.94;42.91;98828.94;4135805;28;20212;-51
2023/06/25 08:20:26;;;;;;;3.25;2.95;;;;;;;27.73;42.27;98833.84;4137840;28;20263;-52
2023/06/25 08:22:28;;;;;;;3.13;2.92;;;;;;;27.43;43.16;98829.69;4148188;28;20934;-50
2023/06/25 08:24:29;;;;;;;2.55;2.35;;;;;;;27.67;42.71;98826.84;4149775;28;20701;-51
2023/06/25 08:26:31;;;;;;;3.30;3.00;;;;;;;28.10;44.04;98827.00;4133752;28;20244;-52
2023/06/25 08:28:33;;;;;;;2.88;2.67;;;;;;;28.03;42.71;98829.59;4150575;28;20710;-53
2023/06/25 08:30:35;;;;;;;2.60;2.40;;;;;;;28.50;42.91;98832.59;4150156;28;20666;-53
2023/06/25 08:32:36;;;;;;;3.28;2.97;;;;;;;28.57;41.74;98833.63;4134870;28;20573;-50
2023/06/25 08:34:40;;;;;;;2.83;2.63;;;;;;;28.49;42.11;98834.63;4133266;28;20755;-51
2023/06/25 08:36:41;;;;;;;2.53;2.33;;;;;;;28.73;42.76;98826.00;4148062;28;20220;-50
2023/06/25 08:38:43;;;;;;;3.30;3.08;;;;;;;28.06;41.16;98828.06;4144878;28;20235;-52
2023/06/25 08:40:46;;;;;;;3.00;2.47;;;;;;;28.32;41.20;98832.06;4133880;28;22054;-51
2023/06/25 08:42:49;;;;;;;2.90;2.70;;;;;;;27.65;40.61;98840.44;4164756;28;20729;-52
2023/06/25 08:44:52;;;;;;;2.65;2.45;;;;;;;27.56;40.95;98831.31;4129794;28;20206;-50
2023/06/25 08:46:54;;;;;;;2.40;2.20;;;;;;;27.34;41.78;98830.97;4136890;28;20211;-53
2023/06/25 08:48:58;;;;;;;3.55;2.65;;;;;;;27.25;41.34;98831.06;4138372;28;20201;-52
2023/06/25 08:51:06;;;;;;;3.17;2.38;;;;;;;27.52;41.88;98824.75;4147175;28;20216;-50
2023/06/25 08:53:08;;;;;;;3.20;3.00;;;;;;;27.83;41.63;98824.97;4148463;28;20200;-49
2023/06/25 08:55:10;;;;;;;2.42;2.22;;;;;;;28.26;41.28;98816.59;4133054;28;20229;-53
2023/06/25 08:57:12;;;;;;;3.40;2.42;;;;;;;28.52;40.68;98822.59;4137884;28;20208;-53
2023/06/25 08:59:14;;;;;;;3.83;2.75;;;;;;;28.61;40.42;98826.09;4148925;28;20216;-50
2023/06/25 09:01:16;;;;;;;2.90;2.67;;;;;;;28.90;39.90;98820.03;4148089;28;20216;-50
2023/06/25 09:03:18;;;;;;;3.42;3.13;;;;;;;29.02;41.02;98816.34;4139772;28;20264;-52
2023/06/25 09:05:25;;;;;;;3.72;3.35;;;;;;;29.25;39.60;98814.53;4136539;28;20311;-50
2023/06/25 09:07:27;;;;;;;2.65;2.45;;;;;;;29.40;38.99;98810.88;4169199;28;20208;-50
2023/06/25 09:09:29;;;;;;;2.53;2.20;;;;;;;29.07;38.98;98824.53;4142472;28;20216;-50
2023/06/25 09:11:33;;;;;;;2.42;2.20;;;;;;;29.57;38.67;98807.72;4155167;28;20283;-51
2023/06/25 09:13:37;;;;;;;2.45;2.25;;;;;;;29.56;38.07;98809.69;4151889;28;20782;-50
2023/06/25 09:15:41;;;;;;;2.72;2.53;;;;;;;29.85;38.10;98799.88;4147106;28;20236;-52
2023/06/25 09:17:43;;;;;;;6.22;3.10;;;;;;;30.10;37.58;98793.59;4134210;28;20209;-51
2023/06/25 09:19:46;;;;;;;4.80;2.30;;;;;;;29.39;37.91;98797.97;4137030;28;20935;-50
2023/06/25 09:21:48;;;;;;;3.67;2.50;;;;;;;29.48;37.87;98790.94;4139060;28;20794;-53
2023/06/25 09:23:51;;;;;;;2.60;2.40;;;;;;;28.60;37.86;98801.09;4165758;28;20207;-52
2023/06/25 09:25:53;;;;;;;3.13;2.35;;;;;;;29.02;38.93;98800.25;4166211;28;20723;-52
2023/06/25 09:27:57;;;;;;;2.97;2.78;;;;;;;29.24;38.14;98799.59;4138348;28;20217;-51
2023/06/25 09:30:00;;;;;;;2.60;2.40;;;;;;;29.27;38.66;98793.25;4138661;28;22393;-51
2023/06/25 09:32:11;;;;;;;3.63;2.58;;;;;;;28.58;38.51;98784.53;4140555;28;20216;-50
2023/06/25 09:34:17;;;;;;;2.75;2.55;;;;;;;28.53;38.66;98776.34;4137597;28;20220;-51
2023/06/25 09:36:19;;;;;;;2.63;2.42;;;;;;;29.19;38.91;98782.97;4133165;28;20225;-50